Time;durP1;ratioP1;P1;durP2;ratioP2;P2;SDS_P1;SDS_P2;PMS_P1;PMS_P2;Temp;Humidity;BMP_temperature;BMP_pressure;BME280_temperature;BME280_humidity;BME280_pressure;Samples;Min_cycle;Max_cycle;Signal;HPM_P1;HPM_P2
2021/01/13 00:00:35;;;;;;;16.93;10.93;;;1.90;99.90;;;;;;5074584;28;20410;-64
2021/01/13 00:03:00;;;;;;;13.60;11.40;;;1.90;99.90;;;;;;5074167;28;20174;-64
2021/01/13 00:05:26;;;;;;;11.53;9.60;;;1.90;99.90;;;;;;5074384;28;20175;-64
2021/01/13 00:07:52;;;;;;;11.13;10.03;;;1.90;99.90;;;;;;5073902;28;20598;-64
2021/01/13 00:10:19;;;;;;;14.30;9.43;;;1.80;99.90;;;;;;5074107;28;20194;-64
2021/01/13 00:12:44;;;;;;;11.60;10.17;;;1.90;99.90;;;;;;5074085;28;20453;-64
2021/01/13 00:15:10;;;;;;;17.70;10.70;;;1.90;99.90;;;;;;5074289;28;20401;-64
2021/01/13 00:17:36;;;;;;;11.83;9.77;;;1.80;99.90;;;;;;5073513;28;20214;-64
2021/01/13 00:20:04;;;;;;;9.20;8.37;;;1.80;99.90;;;;;;5074104;28;20401;-64
2021/01/13 00:22:29;;;;;;;11.90;9.17;;;1.80;99.90;;;;;;5074142;28;20432;-64
2021/01/13 00:24:57;;;;;;;11.50;10.30;;;1.80;99.90;;;;;;5072680;28;20985;-64
2021/01/13 00:27:22;;;;;;;10.53;9.47;;;1.80;99.90;;;;;;5073691;28;20286;-64
2021/01/13 00:29:52;;;;;;;10.73;9.63;;;1.70;99.90;;;;;;5073749;28;20492;-64
2021/01/13 00:32:18;;;;;;;11.63;9.40;;;1.70;99.90;;;;;;5073749;28;20198;-64
2021/01/13 00:34:43;;;;;;;22.83;10.80;;;1.70;99.90;;;;;;5073743;28;20754;-64
2021/01/13 00:37:09;;;;;;;22.77;9.87;;;1.70;99.90;;;;;;5073545;28;20232;-64
2021/01/13 00:39:35;;;;;;;11.93;10.70;;;1.70;99.90;;;;;;5073594;28;20662;-64
2021/01/13 00:42:04;;;;;;;10.37;9.27;;;1.70;99.90;;;;;;5073751;28;20406;-64
2021/01/13 00:44:30;;;;;;;13.27;10.30;;;1.70;99.90;;;;;;5073462;28;20596;-64
2021/01/13 00:46:55;;;;;;;12.60;11.30;;;1.70;99.90;;;;;;5073261;28;20464;-64
2021/01/13 00:49:21;;;;;;;13.90;10.53;;;1.60;99.90;;;;;;5073563;28;20175;-64
2021/01/13 00:51:47;;;;;;;11.73;9.53;;;1.70;99.90;;;;;;5073387;28;20639;-64
2021/01/13 00:54:13;;;;;;;9.90;8.97;;;1.70;99.90;;;;;;5073677;28;20178;-64
2021/01/13 00:56:42;;;;;;;12.13;10.93;;;1.60;99.90;;;;;;5072800;28;20207;-64
2021/01/13 00:59:08;;;;;;;15.77;10.00;;;1.70;99.90;;;;;;5073307;28;20959;-64
2021/01/13 01:01:34;;;;;;;10.60;9.40;;;1.70;99.90;;;;;;5073192;28;20410;-64
2021/01/13 01:03:59;;;;;;;15.17;10.17;;;1.70;99.90;;;;;;5073528;28;20405;-64
2021/01/13 01:06:25;;;;;;;12.83;10.87;;;1.80;99.90;;;;;;5073018;28;20562;-64
2021/01/13 01:08:52;;;;;;;12.60;11.17;;;1.80;99.90;;;;;;5072948;28;20179;-64
2021/01/13 01:11:28;;;;;;;10.70;8.97;;;1.90;99.90;;;;;;5073159;28;20456;-64
2021/01/13 01:13:54;;;;;;;11.73;9.10;;;1.90;99.90;;;;;;5071799;28;20766;-64
2021/01/13 01:16:19;;;;;;;10.57;9.17;;;1.90;99.90;;;;;;5072952;28;20429;-64
2021/01/13 01:18:45;;;;;;;14.37;11.30;;;1.80;99.90;;;;;;5072565;28;20171;-64
2021/01/13 01:21:11;;;;;;;15.27;11.60;;;1.80;99.90;;;;;;5073021;28;20199;-64
2021/01/13 01:23:37;;;;;;;13.60;10.60;;;1.70;99.90;;;;;;5072086;28;20236;-64
2021/01/13 01:26:05;;;;;;;10.70;8.70;;;1.70;99.90;;;;;;5072973;28;20721;-64
2021/01/13 01:28:31;;;;;;;9.20;8.40;;;1.70;99.90;;;;;;5072066;28;20412;-64
2021/01/13 01:30:56;;;;;;;10.50;9.43;;;1.70;99.90;;;;;;5072661;28;20449;-64
2021/01/13 01:33:22;;;;;;;12.90;10.13;;;1.80;99.90;;;;;;5072538;28;20168;-64
2021/01/13 01:35:50;;;;;;;15.10;9.43;;;1.70;99.90;;;;;;5072634;28;20278;-64
2021/01/13 01:38:16;;;;;;;14.20;8.50;;;1.70;99.90;;;;;;5072157;28;20779;-64
2021/01/13 01:40:41;;;;;;;29.10;10.93;;;1.70;99.90;;;;;;5072491;28;20402;-64
2021/01/13 01:43:07;;;;;;;14.70;8.77;;;1.70;99.90;;;;;;5072453;28;20182;-64
2021/01/13 01:45:32;;;;;;;11.73;8.90;;;1.70;99.90;;;;;;5072324;28;20168;-64
2021/01/13 01:47:58;;;;;;;11.33;9.37;;;1.70;99.90;;;;;;5070900;28;20250;-64
2021/01/13 01:50:27;;;;;;;12.47;8.50;;;1.60;99.90;;;;;;5072335;28;20250;-64
2021/01/13 01:53:03;;;;;;;10.87;8.60;;;1.70;99.90;;;;;;5072308;28;20274;-64
2021/01/13 01:55:34;;;;;;;10.77;8.23;;;1.70;99.90;;;;;;5072036;28;21005;-64
2021/01/13 01:58:04;;;;;;;12.27;8.60;;;1.60;99.90;;;;;;5071889;28;20440;-64
2021/01/13 02:00:30;;;;;;;8.63;7.60;;;1.70;99.90;;;;;;5072064;28;20492;-64
2021/01/13 02:03:25;;;;;;;9.40;8.50;;;1.70;99.90;;;;;;5072230;28;20401;-64
2021/01/13 02:05:56;;;;;;;9.93;8.97;;;1.70;99.90;;;;;;5071823;28;20422;-64
2021/01/13 02:08:22;;;;;;;8.90;8.00;;;1.70;99.90;;;;;;5071849;28;20765;-64
2021/01/13 02:10:49;;;;;;;11.43;7.73;;;1.70;99.90;;;;;;5071874;28;20497;-64
2021/01/13 02:13:16;;;;;;;10.70;8.47;;;1.70;99.90;;;;;;5072114;28;20408;-64
2021/01/13 02:15:42;;;;;;;9.43;8.63;;;1.70;99.90;;;;;;5071920;28;20418;-64
2021/01/13 02:18:09;;;;;;;10.80;8.40;;;1.60;99.90;;;;;;5071512;28;20404;-64
2021/01/13 02:20:40;;;;;;;17.13;9.40;;;1.70;99.90;;;;;;5071885;28;20455;-64
2021/01/13 02:23:20;;;;;;;9.37;7.17;;;1.60;99.90;;;;;;5072005;28;20406;-64
2021/01/13 02:26:04;;;;;;;9.70;8.20;;;1.70;99.90;;;;;;5071972;28;20531;-64
2021/01/13 02:28:52;;;;;;;12.70;7.40;;;1.70;99.90;;;;;;5071373;28;20394;-64
2021/01/13 02:31:56;;;;;;;11.30;8.87;;;1.60;99.90;;;;;;5071731;28;20823;-64
2021/01/13 02:34:38;;;;;;;15.47;9.10;;;1.60;99.90;;;;;;5070478;28;20404;-64
2021/01/13 02:37:39;;;;;;;11.13;8.33;;;1.60;99.90;;;;;;5071391;28;20417;-64
2021/01/13 02:40:11;;;;;;;11.17;9.60;;;1.50;99.90;;;;;;5071044;28;20809;-62
2021/01/13 02:42:41;;;;;;;12.20;10.03;;;1.50;99.90;;;;;;5071804;28;20622;-62
2021/01/13 02:45:12;;;;;;;12.63;8.70;;;1.50;99.90;;;;;;5071498;28;20417;-63
2021/01/13 02:47:56;;;;;;;10.70;8.70;;;1.50;99.90;;;;;;5071360;28;20817;-64
2021/01/13 02:50:31;;;;;;;9.63;8.40;;;1.50;99.90;;;;;;5071507;28;20409;-63
2021/01/13 02:53:11;;;;;;;10.17;8.67;;;1.50;99.90;;;;;;5071608;28;20445;-62
2021/01/13 02:55:42;;;;;;;13.03;8.40;;;1.60;99.90;;;;;;5071430;28;20437;-63
2021/01/13 02:58:10;;;;;;;11.13;10.13;;;1.50;99.90;;;;;;5071141;28;20515;-61
2021/01/13 03:00:37;;;;;;;14.63;10.37;;;1.50;99.90;;;;;;5071387;28;21011;-63
2021/01/13 03:03:03;;;;;;;12.63;10.00;;;1.50;99.90;;;;;;5071618;28;20774;-63
2021/01/13 03:05:29;;;;;;;14.70;9.93;;;1.50;99.90;;;;;;5071590;28;20956;-62
2021/01/13 03:07:56;;;;;;;13.80;10.10;;;1.40;99.90;;;;;;5070693;28;20496;-62
2021/01/13 03:10:25;;;;;;;12.70;9.80;;;1.40;99.90;;;;;;5070144;28;20257;-62
2021/01/13 03:12:59;;;;;;;13.33;9.80;;;1.40;99.90;;;;;;5071051;28;20536;-62
2021/01/13 03:15:27;;;;;;;12.20;9.60;;;1.40;99.90;;;;;;5071304;28;20407;-63
2021/01/13 03:18:27;;;;;;;10.43;9.27;;;1.40;99.90;;;;;;5070998;28;20459;-63
2021/01/13 03:21:06;;;;;;;14.80;10.20;;;1.40;99.90;;;;;;5070211;28;20529;-64
2021/01/13 03:23:37;;;;;;;16.27;11.27;;;1.40;99.90;;;;;;5071576;28;20398;-62
2021/01/13 03:26:04;;;;;;;16.63;11.33;;;1.40;99.90;;;;;;5071638;28;20953;-63
2021/01/13 03:28:33;;;;;;;14.40;11.33;;;1.50;99.90;;;;;;5070775;28;20436;-62
2021/01/13 03:30:59;;;;;;;14.57;10.60;;;1.40;99.90;;;;;;5071232;28;20440;-63
2021/01/13 03:33:25;;;;;;;14.57;11.83;;;1.40;99.90;;;;;;5070979;28;20398;-63
2021/01/13 03:36:09;;;;;;;13.43;10.50;;;1.40;99.90;;;;;;5071223;28;20766;-62
2021/01/13 03:38:54;;;;;;;17.60;11.70;;;1.50;99.90;;;;;;5070777;28;20706;-63
2021/01/13 03:41:21;;;;;;;17.30;11.90;;;1.40;99.90;;;;;;5071382;28;20401;-62
2021/01/13 03:43:52;;;;;;;16.90;13.43;;;1.40;99.90;;;;;;5070899;28;20411;-62
2021/01/13 03:46:18;;;;;;;16.23;12.93;;;1.50;99.90;;;;;;5073247;28;20769;-63
2021/01/13 03:48:51;;;;;;;18.37;14.83;;;1.50;99.90;;;;;;5074495;28;20515;-63
2021/01/13 03:51:25;;;;;;;21.10;15.37;;;1.50;99.90;;;;;;5074708;28;20187;-63
2021/01/13 03:53:52;;;;;;;20.43;14.30;;;1.50;99.90;;;;;;5074587;28;20823;-61
2021/01/13 03:56:28;;;;;;;18.73;14.40;;;1.50;99.90;;;;;;5074328;28;20413;-63
2021/01/13 03:58:56;;;;;;;24.10;16.70;;;1.50;99.90;;;;;;5074253;28;20795;-63
2021/01/13 04:01:22;;;;;;;22.50;14.53;;;1.40;99.90;;;;;;5074636;28;20516;-62
2021/01/13 04:04:32;;;;;;;22.50;16.47;;;1.50;99.90;;;;;;5074447;28;20444;-63
2021/01/13 04:07:00;;;;;;;20.07;13.73;;;1.50;99.90;;;;;;5074122;28;20184;-64
2021/01/13 04:09:29;;;;;;;17.00;13.40;;;1.50;99.90;;;;;;5074087;28;20418;-63
2021/01/13 04:12:05;;;;;;;33.50;19.70;;;1.60;99.90;;;;;;5074230;28;21068;-63
2021/01/13 04:14:48;;;;;;;26.53;18.90;;;1.50;99.90;;;;;;5074840;28;20420;-63
2021/01/13 04:17:14;;;;;;;20.97;13.90;;;1.50;99.90;;;;;;5073767;28;20498;-63
2021/01/13 04:19:45;;;;;;;31.20;20.10;;;1.50;99.90;;;;;;5074185;28;20485;-64
2021/01/13 04:22:12;;;;;;;25.60;16.47;;;1.50;99.90;;;;;;5074028;28;20409;-62
2021/01/13 04:24:42;;;;;;;21.33;15.33;;;1.50;99.90;;;;;;5074109;28;20421;-63
2021/01/13 04:27:18;;;;;;;18.43;13.37;;;1.50;99.90;;;;;;5073495;28;20435;-62
2021/01/13 04:29:45;;;;;;;23.03;14.23;;;1.40;99.90;;;;;;5072651;28;20423;-62
2021/01/13 04:32:11;;;;;;;18.60;13.30;;;1.50;99.90;;;;;;5073781;28;20525;-62
2021/01/13 04:34:38;;;;;;;19.13;12.70;;;1.50;99.90;;;;;;5074178;28;20397;-62
2021/01/13 04:37:06;;;;;;;22.23;15.03;;;1.50;99.90;;;;;;5072138;28;20810;-63
2021/01/13 04:39:33;;;;;;;15.40;12.97;;;1.40;99.90;;;;;;5073765;28;20894;-62
2021/01/13 04:42:02;;;;;;;16.57;13.10;;;1.40;99.90;;;;;;5073560;28;20444;-63
2021/01/13 04:44:32;;;;;;;17.67;14.53;;;1.40;99.90;;;;;;5073688;28;20775;-63
2021/01/13 04:47:07;;;;;;;17.10;12.27;;;1.40;99.90;;;;;;5072361;28;20429;-62
2021/01/13 04:49:33;;;;;;;19.17;12.70;;;1.40;99.90;;;;;;5073461;28;20905;-62
2021/01/13 04:52:17;;;;;;;15.27;13.77;;;1.40;99.90;;;;;;5073575;28;20529;-62
2021/01/13 04:54:45;;;;;;;19.03;14.07;;;1.40;99.90;;;;;;5073549;28;20402;-63
2021/01/13 04:57:17;;;;;;;19.83;13.13;;;1.40;99.90;;;;;;5072129;28;20441;-62
2021/01/13 05:00:07;;;;;;;14.50;12.37;;;1.60;99.90;;;;;;5073326;28;20409;-62
2021/01/13 05:02:51;;;;;;;13.57;11.87;;;1.50;99.90;;;;;;5073352;28;20408;-62
2021/01/13 05:05:21;;;;;;;19.83;12.93;;;1.50;99.90;;;;;;5073251;28;20409;-62
2021/01/13 05:08:17;;;;;;;18.90;12.57;;;1.50;99.90;;;;;;5072910;28;20412;-62
2021/01/13 05:10:43;;;;;;;12.90;10.57;;;1.60;99.90;;;;;;5072842;28;20422;-62
2021/01/13 05:13:16;;;;;;;16.63;11.40;;;1.50;99.90;;;;;;5073142;28;20489;-62
2021/01/13 05:15:54;;;;;;;18.37;12.30;;;1.50;99.90;;;;;;5072858;28;20191;-63
2021/01/13 05:18:47;;;;;;;15.10;10.27;;;1.50;99.90;;;;;;5072726;28;20405;-62
2021/01/13 05:21:17;;;;;;;11.37;10.33;;;1.60;99.90;;;;;;5072855;28;20409;-62
2021/01/13 05:23:49;;;;;;;12.40;11.03;;;1.50;99.90;;;;;;5072844;28;20914;-62
2021/01/13 05:26:22;;;;;;;14.60;11.20;;;1.60;99.90;;;;;;5072665;28;20433;-63
2021/01/13 05:29:29;;;;;;;14.03;10.97;;;1.60;99.90;;;;;;5072755;28;20860;-62
2021/01/13 05:31:55;;;;;;;14.90;12.17;;;1.50;99.90;;;;;;5072086;28;20486;-63
2021/01/13 05:34:21;;;;;;;15.10;10.90;;;1.50;99.90;;;;;;5072734;28;20433;-63
2021/01/13 05:37:13;;;;;;;12.00;10.90;;;1.60;99.90;;;;;;5072186;28;20551;-63
2021/01/13 05:39:39;;;;;;;16.00;11.90;;;1.60;99.90;;;;;;5072556;28;20402;-62
2021/01/13 05:42:06;;;;;;;12.67;10.67;;;1.70;99.90;;;;;;5072503;28;20424;-62
2021/01/13 05:44:31;;;;;;;19.30;11.67;;;1.60;99.90;;;;;;5072484;28;20510;-62
2021/01/13 05:47:01;;;;;;;11.57;10.20;;;1.60;99.90;;;;;;5072038;28;20553;-62
2021/01/13 05:49:27;;;;;;;11.97;10.77;;;1.60;99.90;;;;;;5072525;28;20496;-62
2021/01/13 05:51:53;;;;;;;16.63;14.20;;;1.60;99.90;;;;;;5072331;28;21015;-63
2021/01/13 05:54:19;;;;;;;12.10;11.00;;;1.60;99.90;;;;;;5072207;28;20171;-64
2021/01/13 05:56:45;;;;;;;11.23;10.13;;;1.60;99.90;;;;;;5070700;28;20383;-62
2021/01/13 05:59:11;;;;;;;14.27;9.83;;;1.60;99.90;;;;;;5070772;28;20805;-62
2021/01/13 06:01:46;;;;;;;12.87;11.07;;;1.60;99.90;;;;;;5072346;28;20799;-62
2021/01/13 06:04:14;;;;;;;12.93;11.67;;;1.60;99.90;;;;;;5072069;28;20458;-62
2021/01/13 06:07:04;;;;;;;13.30;11.83;;;1.70;99.90;;;;;;5071765;28;20422;-63
2021/01/13 06:09:30;;;;;;;12.57;10.63;;;1.70;99.90;;;;;;5071628;28;20827;-63
2021/01/13 06:11:56;;;;;;;13.07;11.70;;;1.70;99.90;;;;;;5071956;28;20449;-63
2021/01/13 06:14:27;;;;;;;10.67;9.57;;;1.60;99.90;;;;;;5071908;28;20401;-63
2021/01/13 06:16:54;;;;;;;19.17;15.90;;;1.60;99.90;;;;;;5071739;28;20417;-62
2021/01/13 06:19:21;;;;;;;15.53;12.43;;;1.60;99.90;;;;;;5071875;28;20893;-62
2021/01/13 06:22:05;;;;;;;17.67;10.93;;;1.60;99.90;;;;;;5071942;28;20408;-62
2021/01/13 06:24:34;;;;;;;13.83;11.20;;;1.60;99.90;;;;;;5071589;28;20405;-55
2021/01/13 06:27:12;;;;;;;13.10;10.67;;;1.60;99.90;;;;;;5070234;28;20483;-63
2021/01/13 06:30:01;;;;;;;12.73;10.07;;;1.60;99.90;;;;;;5069716;28;20853;-62
2021/01/13 06:32:44;;;;;;;17.00;12.40;;;1.60;99.90;;;;;;5068617;28;21005;-59
2021/01/13 06:35:41;;;;;;;11.70;9.57;;;1.60;99.90;;;;;;5071761;28;20563;-58
2021/01/13 06:38:20;;;;;;;10.43;9.43;;;1.70;99.90;;;;;;5071557;28;20408;-55
2021/01/13 06:40:59;;;;;;;17.80;12.33;;;1.60;99.90;;;;;;5071606;28;20440;-61
2021/01/13 06:43:26;;;;;;;10.60;9.40;;;1.60;99.90;;;;;;5070956;28;21648;-60
2021/01/13 06:45:51;;;;;;;10.57;9.47;;;1.60;99.90;;;;;;5071821;28;20936;-60
2021/01/13 06:48:27;;;;;;;10.80;9.70;;;1.60;99.90;;;;;;5071459;28;20404;-57
2021/01/13 06:51:00;;;;;;;15.03;9.83;;;1.60;99.90;;;;;;5071674;28;20169;-60
2021/01/13 06:53:36;;;;;;;10.10;9.10;;;1.60;99.90;;;;;;5071409;28;20402;-58
2021/01/13 06:56:15;;;;;;;11.30;9.87;;;1.60;99.90;;;;;;5071632;28;20433;-57
2021/01/13 06:59:00;;;;;;;12.70;11.40;;;1.50;99.90;;;;;;5071181;28;20494;-60
2021/01/13 07:01:26;;;;;;;13.53;10.60;;;1.50;99.90;;;;;;5071605;28;20451;-56
2021/01/13 07:03:59;;;;;;;12.70;10.07;;;1.60;99.90;;;;;;5071373;28;20408;-57
2021/01/13 07:06:25;;;;;;;11.00;9.90;;;1.60;99.90;;;;;;5071433;28;20590;-60
2021/01/13 07:08:52;;;;;;;14.20;8.80;;;1.50;99.90;;;;;;5070947;28;20865;-58
2021/01/13 07:11:18;;;;;;;17.50;10.40;;;1.50;99.90;;;;;;5070352;28;20679;-58
2021/01/13 07:13:55;;;;;;;12.37;10.30;;;1.50;99.90;;;;;;5070581;28;20415;-60
2021/01/13 07:16:30;;;;;;;10.73;9.60;;;1.60;99.90;;;;;;5071181;28;20421;-57
2021/01/13 07:19:05;;;;;;;18.80;10.20;;;1.60;99.90;;;;;;5071319;28;20445;-58
2021/01/13 07:21:38;;;;;;;9.83;8.53;;;1.60;99.90;;;;;;5073893;28;20416;-58
2021/01/13 07:24:15;;;;;;;12.53;8.80;;;1.60;99.90;;;;;;5075240;28;20447;-56
2021/01/13 07:26:42;;;;;;;12.33;9.57;;;1.60;99.90;;;;;;5074565;28;20428;-60
2021/01/13 07:29:08;;;;;;;16.57;9.53;;;1.60;99.90;;;;;;5075070;28;20408;-58
2021/01/13 07:31:34;;;;;;;9.33;8.23;;;1.50;99.90;;;;;;5074875;28;20443;-60
2021/01/13 07:34:26;;;;;;;10.20;8.93;;;1.60;99.90;;;;;;5075198;28;20398;-58
2021/01/13 07:36:59;;;;;;;11.57;9.40;;;1.50;99.90;;;;;;5073253;28;20492;-59
2021/01/13 07:39:45;;;;;;;12.67;9.20;;;1.60;99.90;;;;;;5075181;28;20758;-59
2021/01/13 07:42:12;;;;;;;11.60;10.43;;;1.70;99.90;;;;;;5074827;28;20462;-57
2021/01/13 07:44:39;;;;;;;12.93;8.73;;;1.70;99.90;;;;;;5074376;28;20402;-60
2021/01/13 07:47:25;;;;;;;10.13;8.93;;;1.70;99.90;;;;;;5074236;28;20566;-58
2021/01/13 07:50:03;;;;;;;12.97;10.20;;;1.70;99.90;;;;;;5074417;28;20805;-60
2021/01/13 07:52:35;;;;;;;11.00;9.90;;;1.70;99.90;;;;;;5074390;28;20456;-59
2021/01/13 07:55:02;;;;;;;15.17;10.60;;;1.60;99.90;;;;;;5074689;28;20901;-59
2021/01/13 07:57:42;;;;;;;17.53;9.20;;;1.60;99.90;;;;;;5074180;28;20957;-62
2021/01/13 08:00:13;;;;;;;13.77;8.83;;;1.70;99.90;;;;;;5074289;28;20902;-60
2021/01/13 08:03:08;;;;;;;13.80;9.33;;;1.70;99.90;;;;;;5074301;28;20419;-61
2021/01/13 08:06:11;;;;;;;8.77;7.77;;;1.60;99.90;;;;;;5073032;28;20414;-58
2021/01/13 08:09:01;;;;;;;12.80;8.93;;;1.70;99.90;;;;;;5074002;28;20417;-61
2021/01/13 08:11:45;;;;;;;13.13;9.50;;;1.60;99.90;;;;;;5074285;28;20827;-60
2021/01/13 08:14:48;;;;;;;13.57;11.07;;;1.70;99.90;;;;;;5074357;28;20397;-58
2021/01/13 08:17:33;;;;;;;12.30;8.73;;;1.70;99.90;;;;;;5073982;28;20966;-58
2021/01/13 08:20:21;;;;;;;15.27;10.07;;;1.70;99.90;;;;;;5074247;28;20428;-59
2021/01/13 08:23:12;;;;;;;14.27;9.67;;;1.70;99.90;;;;;;5073872;28;20413;-58
2021/01/13 08:25:51;;;;;;;12.13;9.30;;;1.80;99.90;;;;;;5073999;28;20750;-62
2021/01/13 08:28:20;;;;;;;16.33;9.30;;;1.70;99.90;;;;;;5073796;28;20415;-60
2021/01/13 08:30:48;;;;;;;14.90;9.17;;;1.70;99.90;;;;;;5072759;28;20451;-61
2021/01/13 08:33:25;;;;;;;12.67;8.67;;;1.80;99.90;;;;;;5073739;28;20893;-59
2021/01/13 08:35:56;;;;;;;12.00;9.13;;;1.70;99.90;;;;;;5072748;28;21679;-61
2021/01/13 08:38:26;;;;;;;11.80;9.33;;;1.70;99.90;;;;;;5073763;28;20400;-62
2021/01/13 08:40:52;;;;;;;9.50;8.57;;;1.70;99.90;;;;;;5072884;28;20402;-58
2021/01/13 08:43:18;;;;;;;13.00;9.77;;;1.80;99.90;;;;;;5073550;28;20901;-57
2021/01/13 08:45:48;;;;;;;13.35;9.38;;;1.80;99.90;;;;;;5073715;28;20921;-59
2021/01/13 08:48:15;;;;;;;12.40;8.90;;;1.80;99.90;;;;;;5073157;28;20170;-57
2021/01/13 08:50:42;;;;;;;12.63;8.57;;;1.80;99.90;;;;;;5073624;28;20404;-56
2021/01/13 08:53:24;;;;;;;10.13;8.43;;;1.90;99.90;;;;;;5073416;28;20897;-59
2021/01/13 08:55:53;;;;;;;14.23;11.00;;;1.90;99.90;;;;;;5073610;28;20418;-61
2021/01/13 08:58:27;;;;;;;9.83;8.83;;;1.90;99.90;;;;;;5073062;28;20672;-58
2021/01/13 09:01:03;;;;;;;15.13;9.23;;;2.00;99.90;;;;;;5073298;28;20409;-58
2021/01/13 09:03:38;;;;;;;17.80;9.10;;;2.00;99.90;;;;;;5073443;28;20408;-60
2021/01/13 09:06:24;;;;;;;12.90;9.17;;;2.00;99.90;;;;;;5071787;28;20429;-61
2021/01/13 09:08:52;;;;;;;17.37;9.37;;;1.90;99.90;;;;;;5072857;28;20412;-60
2021/01/13 09:11:38;;;;;;;13.53;8.23;;;2.00;99.90;;;;;;5072952;28;20495;-58
2021/01/13 09:14:24;;;;;;;19.53;10.83;;;2.00;99.90;;;;;;5071941;28;20771;-59
2021/01/13 09:16:59;;;;;;;9.70;8.47;;;2.10;99.90;;;;;;5072762;28;20481;-57
2021/01/13 09:19:30;;;;;;;19.33;8.90;;;2.10;99.90;;;;;;5073068;28;20401;-59
2021/01/13 09:22:03;;;;;;;15.00;9.30;;;2.10;99.90;;;;;;5072816;28;20493;-61
2021/01/13 09:24:44;;;;;;;19.13;9.63;;;2.10;99.90;;;;;;5073058;28;20412;-58
2021/01/13 09:27:11;;;;;;;16.93;8.40;;;2.00;99.90;;;;;;5072413;28;20471;-57
2021/01/13 09:29:53;;;;;;;15.17;9.33;;;2.10;99.90;;;;;;5071864;28;20413;-60
2021/01/13 09:32:23;;;;;;;15.40;9.37;;;2.10;99.90;;;;;;5072346;28;20525;-61
2021/01/13 09:34:49;;;;;;;12.80;8.80;;;2.10;99.90;;;;;;5072691;28;20416;-61
2021/01/13 09:37:16;;;;;;;17.80;9.90;;;2.20;99.90;;;;;;5072130;28;20430;-61
2021/01/13 09:40:00;;;;;;;16.90;9.10;;;2.20;99.90;;;;;;5072665;28;20492;-58
2021/01/13 09:42:39;;;;;;;16.27;8.93;;;2.20;99.90;;;;;;5072416;28;20833;-61
2021/01/13 09:45:06;;;;;;;9.93;7.60;;;2.20;99.90;;;;;;5072454;28;20409;-58
2021/01/13 09:47:33;;;;;;;14.20;7.53;;;2.20;99.90;;;;;;5072249;28;20422;-57
2021/01/13 09:49:59;;;;;;;15.23;8.53;;;2.20;99.90;;;;;;5072203;28;20467;-54
2021/01/13 09:52:43;;;;;;;14.90;8.00;;;2.20;99.90;;;;;;5072299;28;20455;-61
2021/01/13 09:55:10;;;;;;;12.97;6.60;;;2.30;99.90;;;;;;5072229;28;20433;-57
2021/01/13 09:57:37;;;;;;;11.93;7.90;;;2.30;99.90;;;;;;5071891;28;20531;-60
2021/01/13 10:00:09;;;;;;;12.53;7.97;;;2.40;99.90;;;;;;5072058;28;20931;-60
2021/01/13 10:02:35;;;;;;;8.20;6.67;;;2.40;99.90;;;;;;5072306;28;20935;-60
2021/01/13 10:05:01;;;;;;;7.33;6.57;;;2.40;99.90;;;;;;5071881;28;20417;-60
2021/01/13 10:07:33;;;;;;;15.77;7.23;;;2.40;99.90;;;;;;5071834;28;20233;-59
2021/01/13 10:10:01;;;;;;;9.20;5.70;;;2.50;99.90;;;;;;5071996;28;20402;-57
2021/01/13 10:12:39;;;;;;;12.33;6.00;;;2.50;99.90;;;;;;5071822;28;20464;-61
2021/01/13 10:15:07;;;;;;;6.50;5.83;;;2.50;99.90;;;;;;5072121;28;20480;-60
2021/01/13 10:17:34;;;;;;;8.87;5.70;;;2.50;99.90;;;;;;5071332;28;20439;-60
2021/01/13 10:20:13;;;;;;;8.03;5.60;;;2.70;99.90;;;;;;5071959;28;20755;-60
2021/01/13 10:22:39;;;;;;;8.67;5.63;;;3.00;99.90;;;;;;5071957;28;20406;-60
2021/01/13 10:25:06;;;;;;;10.77;5.40;;;3.20;99.90;;;;;;5071825;28;20437;-57
2021/01/13 10:27:32;;;;;;;10.33;5.80;;;4.00;99.90;;;;;;5071050;28;20459;-63
2021/01/13 10:29:58;;;;;;;8.50;5.20;;;4.60;99.90;;;;;;5070614;28;20409;-60
2021/01/13 10:32:24;;;;;;;7.90;4.30;;;5.30;99.90;;;;;;5071585;28;20582;-58
2021/01/13 10:34:53;;;;;;;5.63;4.57;;;5.50;99.90;;;;;;5071849;28;20598;-61
2021/01/13 10:37:20;;;;;;;4.73;4.20;;;5.70;99.90;;;;;;5070255;28;20428;-61
2021/01/13 10:39:45;;;;;;;7.33;3.67;;;5.80;99.90;;;;;;5070002;28;20915;-61
2021/01/13 10:42:11;;;;;;;7.10;3.80;;;5.80;99.90;;;;;;5071652;28;20410;-61
2021/01/13 10:44:37;;;;;;;7.67;4.40;;;6.20;99.90;;;;;;5071609;28;20198;-61
2021/01/13 10:47:09;;;;;;;4.43;4.03;;;6.20;98.90;;;;;;5071481;28;20514;-61
2021/01/13 10:49:37;;;;;;;9.37;3.40;;;6.30;99.70;;;;;;5071418;28;20175;-61
2021/01/13 10:52:21;;;;;;;4.37;3.70;;;6.30;98.80;;;;;;5071649;28;20467;-62
2021/01/13 10:54:49;;;;;;;3.77;3.40;;;6.70;98.70;;;;;;5070331;28;20543;-61
2021/01/13 10:57:35;;;;;;;6.97;3.07;;;6.40;97.80;;;;;;5075225;28;20441;-61
2021/01/13 11:00:11;;;;;;;4.20;3.10;;;6.10;97.20;;;;;;5075369;28;20409;-62
2021/01/13 11:02:38;;;;;;;5.03;3.23;;;6.20;99.00;;;;;;5075739;28;20405;-59
2021/01/13 11:05:04;;;;;;;3.80;3.40;;;6.60;99.70;;;;;;5075541;28;20428;-61
2021/01/13 11:07:39;;;;;;;3.57;3.27;;;7.30;97.20;;;;;;5075148;28;20925;-61
2021/01/13 11:10:09;;;;;;;8.80;3.20;;;8.20;97.10;;;;;;5075356;28;20421;-62
2021/01/13 11:12:35;;;;;;;3.30;3.00;;;8.90;95.40;;;;;;5075618;28;20500;-63
2021/01/13 11:15:05;;;;;;;3.70;3.13;;;9.10;94.60;;;;;;5075341;28;20397;-63
2021/01/13 11:17:32;;;;;;;9.67;3.90;;;9.10;94.20;;;;;;5075116;28;20699;-61
2021/01/13 11:20:00;;;;;;;5.70;3.43;;;9.50;93.40;;;;;;5075187;28;20403;-63
2021/01/13 11:22:53;;;;;;;7.13;3.33;;;9.60;92.50;;;;;;5075224;28;20428;-62
2021/01/13 11:25:36;;;;;;;3.63;3.30;;;9.60;92.40;;;;;;5075317;28;20397;-61
2021/01/13 11:28:15;;;;;;;6.67;3.70;;;9.80;92.60;;;;;;5075000;28;20405;-61
2021/01/13 11:30:46;;;;;;;3.97;2.87;;;9.90;90.50;;;;;;5075192;28;20901;-62
2021/01/13 11:33:13;;;;;;;6.43;2.80;;;9.80;90.30;;;;;;5074952;28;20445;-62
2021/01/13 11:35:44;;;;;;;4.40;2.90;;;10.00;90.10;;;;;;5075100;28;20394;-61
2021/01/13 11:38:12;;;;;;;3.07;2.53;;;10.70;90.40;;;;;;5074599;28;20759;-62
2021/01/13 11:41:07;;;;;;;3.57;2.83;;;10.60;87.10;;;;;;5075001;28;20493;-62
2021/01/13 11:44:00;;;;;;;6.70;3.50;;;10.90;90.40;;;;;;5074117;28;20444;-62
2021/01/13 11:46:37;;;;;;;3.97;3.60;;;11.10;87.40;;;;;;5074852;28;20878;-62
2021/01/13 11:49:24;;;;;;;4.10;3.00;;;11.60;89.60;;;;;;5074567;28;20405;-62
2021/01/13 11:51:54;;;;;;;5.73;2.90;;;11.00;87.70;;;;;;5073545;28;20527;-61
2021/01/13 11:54:26;;;;;;;6.93;3.50;;;11.40;86.10;;;;;;5074623;28;20496;-63
2021/01/13 11:56:52;;;;;;;7.30;3.60;;;11.10;85.50;;;;;;5074251;28;20579;-63
2021/01/13 11:59:28;;;;;;;4.60;2.77;;;11.90;85.90;;;;;;5074491;28;20398;-62
2021/01/13 12:01:58;;;;;;;4.20;2.93;;;12.20;84.80;;;;;;5074558;28;20463;-63
2021/01/13 12:04:24;;;;;;;3.67;2.80;;;12.60;82.20;;;;;;5074428;28;20409;-62
2021/01/13 12:06:59;;;;;;;2.90;2.70;;;12.50;82.00;;;;;;5073870;28;20425;-62
2021/01/13 12:09:26;;;;;;;2.97;2.40;;;13.00;80.40;;;;;;5074329;28;20419;-63
2021/01/13 12:11:52;;;;;;;2.37;2.17;;;13.20;77.10;;;;;;5074443;28;20456;-62
2021/01/13 12:14:17;;;;;;;4.27;3.13;;;13.30;78.30;;;;;;5074263;28;20416;-62
2021/01/13 12:16:43;;;;;;;2.40;2.20;;;13.40;78.70;;;;;;5072764;28;20979;-59
2021/01/13 12:19:09;;;;;;;2.90;2.50;;;13.30;77.60;;;;;;5072886;28;20175;-62
2021/01/13 12:21:35;;;;;;;5.03;3.00;;;12.80;75.80;;;;;;5074314;28;20179;-62
2021/01/13 12:24:14;;;;;;;3.23;2.33;;;11.50;76.10;;;;;;5074303;28;20182;-63
2021/01/13 12:26:41;;;;;;;2.90;2.60;;;11.10;78.40;;;;;;5073718;28;20187;-61
2021/01/13 12:29:09;;;;;;;2.73;2.53;;;10.70;83.60;;;;;;5074126;28;20501;-60
2021/01/13 12:31:37;;;;;;;2.73;2.53;;;10.80;80.60;;;;;;5073783;28;20505;-63
2021/01/13 12:34:03;;;;;;;3.33;2.60;;;11.90;84.20;;;;;;5074114;28;20406;-62
2021/01/13 12:36:36;;;;;;;3.50;2.60;;;12.50;78.20;;;;;;5073607;28;20429;-65
2021/01/13 12:39:03;;;;;;;6.10;2.93;;;12.80;82.20;;;;;;5073852;28;20500;-62
2021/01/13 12:41:31;;;;;;;3.13;2.70;;;13.30;78.10;;;;;;5073688;28;20853;-63
2021/01/13 12:44:06;;;;;;;4.50;2.90;;;12.80;78.50;;;;;;5073847;28;20444;-60
2021/01/13 12:46:33;;;;;;;4.57;2.40;;;12.90;77.90;;;;;;5073337;28;20435;-63
2021/01/13 12:49:00;;;;;;;3.13;2.83;;;13.20;75.20;;;;;;5073724;28;20412;-64
2021/01/13 12:51:26;;;;;;;4.90;3.13;;;13.00;74.40;;;;;;5073518;28;20488;-62
2021/01/13 12:53:56;;;;;;;6.80;4.23;;;12.50;77.30;;;;;;5073608;28;20486;-62
2021/01/13 12:56:34;;;;;;;3.50;2.80;;;12.70;77.50;;;;;;5073476;28;20432;-62
2021/01/13 12:59:01;;;;;;;4.07;3.20;;;12.20;76.60;;;;;;5073393;28;20413;-62
2021/01/13 13:01:28;;;;;;;16.27;12.37;;;12.00;78.10;;;;;;5073503;28;20416;-60
2021/01/13 13:03:57;;;;;;;6.83;4.47;;;12.10;75.80;;;;;;5073311;28;20922;-60
2021/01/13 13:06:26;;;;;;;4.23;2.53;;;12.40;80.20;;;;;;5073353;28;20434;-60
2021/01/13 13:08:52;;;;;;;4.03;3.20;;;12.40;75.60;;;;;;5072936;28;20833;-62
2021/01/13 13:11:18;;;;;;;3.10;2.70;;;12.30;75.90;;;;;;5073282;28;20449;-63